sensor_id;sensor_type;location;lat;lon;timestamp;P1;durP1;ratioP1;P2;durP2;ratioP2
5416;SDS011;2731;50.754;12.990;2023-07-09T00:01:55;5.15;;;4.32;;
5416;SDS011;2731;50.754;12.990;2023-07-09T00:04:41;7.28;;;4.38;;
5416;SDS011;2731;50.754;12.990;2023-07-09T00:07:31;5.40;;;4.18;;
5416;SDS011;2731;50.754;12.990;2023-07-09T00:10:16;4.93;;;4.00;;
5416;SDS011;2731;50.754;12.990;2023-07-09T00:12:45;6.68;;;4.93;;
5416;SDS011;2731;50.754;12.990;2023-07-09T00:15:14;7.95;;;4.05;;
5416;SDS011;2731;50.754;12.990;2023-07-09T00:17:47;5.18;;;3.72;;
5416;SDS011;2731;50.754;12.990;2023-07-09T00:20:32;5.53;;;4.20;;
5416;SDS011;2731;50.754;12.990;2023-07-09T00:23:20;6.55;;;4.28;;
5416;SDS011;2731;50.754;12.990;2023-07-09T00:26:10;7.63;;;4.38;;
5416;SDS011;2731;50.754;12.990;2023-07-09T00:28:58;6.30;;;4.47;;
5416;SDS011;2731;50.754;12.990;2023-07-09T00:31:46;5.85;;;4.75;;
5416;SDS011;2731;50.754;12.990;2023-07-09T00:34:33;7.47;;;3.85;;
5416;SDS011;2731;50.754;12.990;2023-07-09T00:37:07;4.80;;;3.50;;
5416;SDS011;2731;50.754;12.990;2023-07-09T00:39:36;7.43;;;4.80;;
5416;SDS011;2731;50.754;12.990;2023-07-09T00:42:18;6.55;;;3.75;;
5416;SDS011;2731;50.754;12.990;2023-07-09T00:45:07;6.13;;;4.15;;
5416;SDS011;2731;50.754;12.990;2023-07-09T00:48:01;7.03;;;4.38;;
5416;SDS011;2731;50.754;12.990;2023-07-09T00:53:17;9.68;;;4.82;;
5416;SDS011;2731;50.754;12.990;2023-07-09T00:56:01;6.22;;;4.47;;
5416;SDS011;2731;50.754;12.990;2023-07-09T00:58:30;6.43;;;4.28;;
5416;SDS011;2731;50.754;12.990;2023-07-09T01:01:02;6.37;;;5.00;;
5416;SDS011;2731;50.754;12.990;2023-07-09T01:03:42;7.47;;;4.45;;
5416;SDS011;2731;50.754;12.990;2023-07-09T01:06:12;6.35;;;4.88;;
5416;SDS011;2731;50.754;12.990;2023-07-09T01:08:40;6.30;;;4.70;;
5416;SDS011;2731;50.754;12.990;2023-07-09T01:11:16;6.88;;;5.32;;
5416;SDS011;2731;50.754;12.990;2023-07-09T01:13:52;14.35;;;4.88;;
5416;SDS011;2731;50.754;12.990;2023-07-09T01:16:27;11.93;;;5.13;;
5416;SDS011;2731;50.754;12.990;2023-07-09T01:18:58;6.43;;;5.10;;
5416;SDS011;2731;50.754;12.990;2023-07-09T01:21:27;5.93;;;4.25;;
5416;SDS011;2731;50.754;12.990;2023-07-09T01:23:54;7.15;;;5.15;;
5416;SDS011;2731;50.754;12.990;2023-07-09T01:26:25;9.60;;;6.18;;
5416;SDS011;2731;50.754;12.990;2023-07-09T01:28:56;8.02;;;5.53;;
5416;SDS011;2731;50.754;12.990;2023-07-09T01:31:25;7.15;;;5.70;;
5416;SDS011;2731;50.754;12.990;2023-07-09T01:33:53;6.25;;;4.95;;
5416;SDS011;2731;50.754;12.990;2023-07-09T01:36:20;7.22;;;5.68;;
5416;SDS011;2731;50.754;12.990;2023-07-09T01:38:56;7.72;;;5.25;;
5416;SDS011;2731;50.754;12.990;2023-07-09T01:41:27;6.47;;;4.93;;
5416;SDS011;2731;50.754;12.990;2023-07-09T01:43:56;7.25;;;4.60;;
5416;SDS011;2731;50.754;12.990;2023-07-09T01:46:23;7.65;;;5.10;;
5416;SDS011;2731;50.754;12.990;2023-07-09T01:48:52;7.68;;;4.85;;
5416;SDS011;2731;50.754;12.990;2023-07-09T01:51:24;11.45;;;5.07;;
5416;SDS011;2731;50.754;12.990;2023-07-09T01:53:57;6.30;;;4.75;;
5416;SDS011;2731;50.754;12.990;2023-07-09T01:56:26;8.75;;;4.90;;
5416;SDS011;2731;50.754;12.990;2023-07-09T01:58:55;6.72;;;4.90;;
5416;SDS011;2731;50.754;12.990;2023-07-09T02:01:37;7.43;;;4.93;;
5416;SDS011;2731;50.754;12.990;2023-07-09T02:04:05;7.45;;;6.05;;
5416;SDS011;2731;50.754;12.990;2023-07-09T02:06:37;6.53;;;4.95;;
5416;SDS011;2731;50.754;12.990;2023-07-09T02:09:07;7.35;;;5.22;;
5416;SDS011;2731;50.754;12.990;2023-07-09T02:11:36;9.40;;;5.10;;
5416;SDS011;2731;50.754;12.990;2023-07-09T02:14:05;7.15;;;5.18;;
5416;SDS011;2731;50.754;12.990;2023-07-09T02:16:34;8.57;;;5.20;;
5416;SDS011;2731;50.754;12.990;2023-07-09T02:19:08;8.73;;;4.75;;
5416;SDS011;2731;50.754;12.990;2023-07-09T02:21:35;7.07;;;4.35;;
5416;SDS011;2731;50.754;12.990;2023-07-09T02:24:04;6.40;;;4.97;;
5416;SDS011;2731;50.754;12.990;2023-07-09T02:26:33;6.85;;;5.57;;
5416;SDS011;2731;50.754;12.990;2023-07-09T02:29:00;7.78;;;5.40;;
5416;SDS011;2731;50.754;12.990;2023-07-09T02:31:27;9.27;;;5.30;;
5416;SDS011;2731;50.754;12.990;2023-07-09T02:33:58;8.52;;;4.93;;
5416;SDS011;2731;50.754;12.990;2023-07-09T02:36:29;7.78;;;5.50;;
5416;SDS011;2731;50.754;12.990;2023-07-09T02:38:56;7.43;;;5.05;;
5416;SDS011;2731;50.754;12.990;2023-07-09T02:41:24;5.47;;;4.40;;
5416;SDS011;2731;50.754;12.990;2023-07-09T02:43:53;6.97;;;4.80;;
5416;SDS011;2731;50.754;12.990;2023-07-09T02:46:21;6.35;;;4.82;;
5416;SDS011;2731;50.754;12.990;2023-07-09T02:48:50;6.80;;;5.07;;
5416;SDS011;2731;50.754;12.990;2023-07-09T02:51:38;6.63;;;4.63;;
5416;SDS011;2731;50.754;12.990;2023-07-09T02:54:23;6.75;;;4.80;;
5416;SDS011;2731;50.754;12.990;2023-07-09T02:57:10;6.80;;;4.90;;
5416;SDS011;2731;50.754;12.990;2023-07-09T02:59:56;8.52;;;5.20;;
5416;SDS011;2731;50.754;12.990;2023-07-09T03:02:42;6.03;;;4.60;;
5416;SDS011;2731;50.754;12.990;2023-07-09T03:05:10;6.70;;;4.95;;
5416;SDS011;2731;50.754;12.990;2023-07-09T03:07:38;6.28;;;4.72;;
5416;SDS011;2731;50.754;12.990;2023-07-09T03:10:24;7.93;;;4.68;;
5416;SDS011;2731;50.754;12.990;2023-07-09T03:13:12;6.57;;;4.43;;
5416;SDS011;2731;50.754;12.990;2023-07-09T03:15:58;4.93;;;4.25;;
5416;SDS011;2731;50.754;12.990;2023-07-09T03:18:44;8.23;;;5.07;;
5416;SDS011;2731;50.754;12.990;2023-07-09T03:21:31;10.82;;;4.75;;
5416;SDS011;2731;50.754;12.990;2023-07-09T03:24:17;5.68;;;4.38;;
5416;SDS011;2731;50.754;12.990;2023-07-09T03:27:04;7.40;;;4.38;;
5416;SDS011;2731;50.754;12.990;2023-07-09T03:29:49;8.38;;;4.90;;
5416;SDS011;2731;50.754;12.990;2023-07-09T03:32:33;6.85;;;5.20;;
5416;SDS011;2731;50.754;12.990;2023-07-09T03:35:20;7.75;;;4.65;;
5416;SDS011;2731;50.754;12.990;2023-07-09T03:38:07;7.55;;;4.55;;
5416;SDS011;2731;50.754;12.990;2023-07-09T03:40:36;6.05;;;4.18;;
5416;SDS011;2731;50.754;12.990;2023-07-09T03:43:04;5.82;;;4.00;;
5416;SDS011;2731;50.754;12.990;2023-07-09T03:45:32;7.68;;;4.70;;
5416;SDS011;2731;50.754;12.990;2023-07-09T03:48:17;4.88;;;3.90;;
5416;SDS011;2731;50.754;12.990;2023-07-09T03:50:45;6.82;;;4.35;;
5416;SDS011;2731;50.754;12.990;2023-07-09T03:53:13;6.00;;;4.20;;
5416;SDS011;2731;50.754;12.990;2023-07-09T03:55:40;6.80;;;4.82;;
5416;SDS011;2731;50.754;12.990;2023-07-09T03:58:06;4.97;;;3.78;;
5416;SDS011;2731;50.754;12.990;2023-07-09T04:00:54;8.30;;;4.95;;
5416;SDS011;2731;50.754;12.990;2023-07-09T04:03:44;6.10;;;4.22;;
5416;SDS011;2731;50.754;12.990;2023-07-09T04:06:34;6.32;;;4.70;;
5416;SDS011;2731;50.754;12.990;2023-07-09T04:09:19;6.03;;;4.57;;
5416;SDS011;2731;50.754;12.990;2023-07-09T04:12:06;4.72;;;3.97;;
5416;SDS011;2731;50.754;12.990;2023-07-09T04:14:35;8.05;;;4.07;;
5416;SDS011;2731;50.754;12.990;2023-07-09T04:17:25;6.78;;;4.13;;
5416;SDS011;2731;50.754;12.990;2023-07-09T04:20:13;7.10;;;4.53;;
5416;SDS011;2731;50.754;12.990;2023-07-09T04:22:59;6.20;;;4.03;;
5416;SDS011;2731;50.754;12.990;2023-07-09T04:25:47;6.70;;;4.43;;
5416;SDS011;2731;50.754;12.990;2023-07-09T04:28:14;5.43;;;4.00;;
5416;SDS011;2731;50.754;12.990;2023-07-09T04:31:06;7.13;;;4.20;;
5416;SDS011;2731;50.754;12.990;2023-07-09T04:33:55;5.63;;;4.40;;
5416;SDS011;2731;50.754;12.990;2023-07-09T04:36:42;4.63;;;3.80;;
5416;SDS011;2731;50.754;12.990;2023-07-09T04:39:29;6.47;;;4.38;;
5416;SDS011;2731;50.754;12.990;2023-07-09T04:42:17;5.60;;;4.00;;
5416;SDS011;2731;50.754;12.990;2023-07-09T04:45:04;7.78;;;4.30;;
5416;SDS011;2731;50.754;12.990;2023-07-09T04:47:50;5.70;;;4.22;;
5416;SDS011;2731;50.754;12.990;2023-07-09T04:50:37;6.85;;;3.97;;
5416;SDS011;2731;50.754;12.990;2023-07-09T04:53:05;6.40;;;4.13;;
5416;SDS011;2731;50.754;12.990;2023-07-09T04:55:34;6.90;;;4.18;;
5416;SDS011;2731;50.754;12.990;2023-07-09T04:58:18;5.45;;;4.18;;
5416;SDS011;2731;50.754;12.990;2023-07-09T05:01:05;5.47;;;3.78;;
5416;SDS011;2731;50.754;12.990;2023-07-09T05:03:52;5.63;;;4.25;;
5416;SDS011;2731;50.754;12.990;2023-07-09T05:06:38;7.55;;;5.00;;
5416;SDS011;2731;50.754;12.990;2023-07-09T05:09:23;8.70;;;3.90;;
5416;SDS011;2731;50.754;12.990;2023-07-09T05:12:09;5.75;;;3.97;;
5416;SDS011;2731;50.754;12.990;2023-07-09T05:14:39;7.03;;;4.43;;
5416;SDS011;2731;50.754;12.990;2023-07-09T05:17:26;5.65;;;4.15;;
5416;SDS011;2731;50.754;12.990;2023-07-09T05:20:13;5.30;;;4.30;;
5416;SDS011;2731;50.754;12.990;2023-07-09T05:23:02;5.82;;;4.38;;
5416;SDS011;2731;50.754;12.990;2023-07-09T05:25:48;5.57;;;3.60;;
5416;SDS011;2731;50.754;12.990;2023-07-09T05:28:35;6.18;;;4.28;;
5416;SDS011;2731;50.754;12.990;2023-07-09T05:31:22;4.20;;;3.60;;
5416;SDS011;2731;50.754;12.990;2023-07-09T05:34:06;5.18;;;3.75;;
5416;SDS011;2731;50.754;12.990;2023-07-09T05:36:34;5.30;;;4.25;;
5416;SDS011;2731;50.754;12.990;2023-07-09T05:39:20;6.03;;;3.88;;
5416;SDS011;2731;50.754;12.990;2023-07-09T05:42:06;6.82;;;3.38;;
5416;SDS011;2731;50.754;12.990;2023-07-09T05:44:52;7.30;;;3.58;;
5416;SDS011;2731;50.754;12.990;2023-07-09T05:47:41;4.55;;;3.33;;
5416;SDS011;2731;50.754;12.990;2023-07-09T05:50:09;6.65;;;3.65;;
5416;SDS011;2731;50.754;12.990;2023-07-09T05:53:05;6.60;;;3.90;;
5416;SDS011;2731;50.754;12.990;2023-07-09T05:55:55;5.65;;;3.70;;
5416;SDS011;2731;50.754;12.990;2023-07-09T05:58:52;4.30;;;3.60;;
5416;SDS011;2731;50.754;12.990;2023-07-09T06:01:41;5.20;;;3.20;;
5416;SDS011;2731;50.754;12.990;2023-07-09T06:04:28;5.43;;;3.20;;
5416;SDS011;2731;50.754;12.990;2023-07-09T06:07:11;4.75;;;3.30;;
5416;SDS011;2731;50.754;12.990;2023-07-09T06:09:48;3.47;;;3.17;;
5416;SDS011;2731;50.754;12.990;2023-07-09T06:12:16;4.22;;;3.67;;
5416;SDS011;2731;50.754;12.990;2023-07-09T06:14:46;5.32;;;3.70;;
5416;SDS011;2731;50.754;12.990;2023-07-09T06:17:32;5.40;;;4.10;;
5416;SDS011;2731;50.754;12.990;2023-07-09T06:20:19;4.35;;;3.60;;
5416;SDS011;2731;50.754;12.990;2023-07-09T06:23:05;7.13;;;3.35;;
5416;SDS011;2731;50.754;12.990;2023-07-09T06:26:01;4.57;;;3.28;;
5416;SDS011;2731;50.754;12.990;2023-07-09T06:28:49;5.30;;;3.60;;
5416;SDS011;2731;50.754;12.990;2023-07-09T06:31:19;5.63;;;3.20;;
5416;SDS011;2731;50.754;12.990;2023-07-09T06:33:48;6.00;;;4.15;;
5416;SDS011;2731;50.754;12.990;2023-07-09T06:36:16;5.30;;;3.35;;
5416;SDS011;2731;50.754;12.990;2023-07-09T06:39:03;4.15;;;3.30;;
5416;SDS011;2731;50.754;12.990;2023-07-09T06:41:49;7.05;;;3.75;;
5416;SDS011;2731;50.754;12.990;2023-07-09T06:44:37;3.83;;;3.40;;
5416;SDS011;2731;50.754;12.990;2023-07-09T06:47:33;5.65;;;3.63;;
5416;SDS011;2731;50.754;12.990;2023-07-09T06:50:20;6.38;;;3.60;;
5416;SDS011;2731;50.754;12.990;2023-07-09T06:53:07;4.18;;;3.33;;
5416;SDS011;2731;50.754;12.990;2023-07-09T06:55:54;4.68;;;3.15;;
5416;SDS011;2731;50.754;12.990;2023-07-09T06:58:42;4.35;;;3.50;;
5416;SDS011;2731;50.754;12.990;2023-07-09T07:01:32;5.15;;;3.53;;
5416;SDS011;2731;50.754;12.990;2023-07-09T07:04:19;5.15;;;3.63;;
5416;SDS011;2731;50.754;12.990;2023-07-09T07:07:06;5.18;;;3.92;;
5416;SDS011;2731;50.754;12.990;2023-07-09T07:09:54;4.30;;;3.42;;
5416;SDS011;2731;50.754;12.990;2023-07-09T07:12:28;3.90;;;3.40;;
5416;SDS011;2731;50.754;12.990;2023-07-09T07:14:56;7.70;;;3.78;;
5416;SDS011;2731;50.754;12.990;2023-07-09T07:17:24;4.70;;;3.97;;
5416;SDS011;2731;50.754;12.990;2023-07-09T07:19:53;4.20;;;3.28;;
5416;SDS011;2731;50.754;12.990;2023-07-09T07:22:21;4.95;;;3.70;;
5416;SDS011;2731;50.754;12.990;2023-07-09T07:24:47;6.10;;;3.75;;
5416;SDS011;2731;50.754;12.990;2023-07-09T07:27:14;4.35;;;3.60;;
5416;SDS011;2731;50.754;12.990;2023-07-09T07:29:40;3.28;;;2.97;;
5416;SDS011;2731;50.754;12.990;2023-07-09T07:32:08;6.30;;;3.55;;
5416;SDS011;2731;50.754;12.990;2023-07-09T07:34:34;3.83;;;3.15;;
5416;SDS011;2731;50.754;12.990;2023-07-09T07:37:03;5.47;;;3.60;;
5416;SDS011;2731;50.754;12.990;2023-07-09T07:39:30;4.00;;;3.20;;
5416;SDS011;2731;50.754;12.990;2023-07-09T07:42:16;4.25;;;3.40;;
5416;SDS011;2731;50.754;12.990;2023-07-09T07:47:18;3.67;;;3.30;;
5416;SDS011;2731;50.754;12.990;2023-07-09T07:49:48;3.75;;;3.22;;
5416;SDS011;2731;50.754;12.990;2023-07-09T07:52:17;4.78;;;3.72;;
5416;SDS011;2731;50.754;12.990;2023-07-09T07:54:46;4.60;;;3.65;;
5416;SDS011;2731;50.754;12.990;2023-07-09T07:57:14;3.97;;;3.00;;
5416;SDS011;2731;50.754;12.990;2023-07-09T07:59:40;4.10;;;3.30;;
5416;SDS011;2731;50.754;12.990;2023-07-09T08:02:10;4.53;;;3.50;;
5416;SDS011;2731;50.754;12.990;2023-07-09T08:04:36;3.30;;;2.90;;
5416;SDS011;2731;50.754;12.990;2023-07-09T08:07:03;4.00;;;3.30;;
5416;SDS011;2731;50.754;12.990;2023-07-09T08:09:29;5.72;;;3.38;;
5416;SDS011;2731;50.754;12.990;2023-07-09T08:11:55;6.10;;;3.15;;
5416;SDS011;2731;50.754;12.990;2023-07-09T08:14:21;4.38;;;3.50;;
5416;SDS011;2731;50.754;12.990;2023-07-09T08:16:47;4.32;;;3.45;;
5416;SDS011;2731;50.754;12.990;2023-07-09T08:19:19;5.00;;;3.22;;
5416;SDS011;2731;50.754;12.990;2023-07-09T08:21:45;5.20;;;3.55;;
5416;SDS011;2731;50.754;12.990;2023-07-09T08:24:12;3.97;;;3.25;;
5416;SDS011;2731;50.754;12.990;2023-07-09T08:26:39;5.18;;;3.47;;
5416;SDS011;2731;50.754;12.990;2023-07-09T08:29:05;6.60;;;3.63;;
5416;SDS011;2731;50.754;12.990;2023-07-09T08:31:31;4.28;;;3.05;;
5416;SDS011;2731;50.754;12.990;2023-07-09T08:33:57;4.60;;;3.47;;
5416;SDS011;2731;50.754;12.990;2023-07-09T08:36:23;4.38;;;3.78;;
5416;SDS011;2731;50.754;12.990;2023-07-09T08:38:50;3.90;;;3.40;;
5416;SDS011;2731;50.754;12.990;2023-07-09T08:41:24;4.47;;;3.65;;
5416;SDS011;2731;50.754;12.990;2023-07-09T08:49:01;5.97;;;3.25;;
5416;SDS011;2731;50.754;12.990;2023-07-09T08:51:32;4.43;;;3.50;;
5416;SDS011;2731;50.754;12.990;2023-07-09T08:54:00;4.68;;;3.30;;
5416;SDS011;2731;50.754;12.990;2023-07-09T08:56:27;4.55;;;3.22;;
5416;SDS011;2731;50.754;12.990;2023-07-09T08:58:55;6.57;;;3.50;;
5416;SDS011;2731;50.754;12.990;2023-07-09T09:01:27;6.30;;;3.50;;
5416;SDS011;2731;50.754;12.990;2023-07-09T09:03:58;5.75;;;3.80;;
5416;SDS011;2731;50.754;12.990;2023-07-09T09:06:28;4.13;;;3.58;;
5416;SDS011;2731;50.754;12.990;2023-07-09T09:08:57;6.88;;;3.25;;
5416;SDS011;2731;50.754;12.990;2023-07-09T09:14:01;5.50;;;3.28;;
5416;SDS011;2731;50.754;12.990;2023-07-09T09:16:35;4.57;;;3.70;;
5416;SDS011;2731;50.754;12.990;2023-07-09T09:19:03;5.07;;;3.60;;
5416;SDS011;2731;50.754;12.990;2023-07-09T09:21:35;5.47;;;3.03;;
5416;SDS011;2731;50.754;12.990;2023-07-09T09:24:10;5.75;;;3.90;;
5416;SDS011;2731;50.754;12.990;2023-07-09T09:26:38;5.53;;;3.38;;
5416;SDS011;2731;50.754;12.990;2023-07-09T09:29:16;4.82;;;3.85;;
5416;SDS011;2731;50.754;12.990;2023-07-09T09:31:46;5.50;;;3.47;;
5416;SDS011;2731;50.754;12.990;2023-07-09T09:34:22;4.32;;;3.05;;
5416;SDS011;2731;50.754;12.990;2023-07-09T09:36:48;6.07;;;3.67;;
5416;SDS011;2731;50.754;12.990;2023-07-09T09:39:14;3.88;;;3.38;;
5416;SDS011;2731;50.754;12.990;2023-07-09T09:41:40;4.78;;;3.15;;
5416;SDS011;2731;50.754;12.990;2023-07-09T09:44:16;4.70;;;3.30;;
5416;SDS011;2731;50.754;12.990;2023-07-09T09:46:44;5.22;;;3.28;;
5416;SDS011;2731;50.754;12.990;2023-07-09T09:49:10;6.45;;;3.55;;
5416;SDS011;2731;50.754;12.990;2023-07-09T09:51:39;6.40;;;4.00;;
5416;SDS011;2731;50.754;12.990;2023-07-09T09:54:10;5.20;;;3.70;;
5416;SDS011;2731;50.754;12.990;2023-07-09T09:56:38;4.07;;;3.67;;
5416;SDS011;2731;50.754;12.990;2023-07-09T09:59:13;4.05;;;3.33;;
5416;SDS011;2731;50.754;12.990;2023-07-09T10:01:42;4.65;;;3.38;;
5416;SDS011;2731;50.754;12.990;2023-07-09T10:04:10;5.38;;;3.58;;
5416;SDS011;2731;50.754;12.990;2023-07-09T10:11:58;5.75;;;3.78;;
5416;SDS011;2731;50.754;12.990;2023-07-09T10:17:13;5.30;;;3.85;;
5416;SDS011;2731;50.754;12.990;2023-07-09T10:19:59;5.18;;;3.47;;
5416;SDS011;2731;50.754;12.990;2023-07-09T10:28:02;5.07;;;3.47;;
5416;SDS011;2731;50.754;12.990;2023-07-09T10:33:11;4.90;;;3.67;;
5416;SDS011;2731;50.754;12.990;2023-07-09T10:38:31;5.32;;;3.60;;
5416;SDS011;2731;50.754;12.990;2023-07-09T10:41:04;5.72;;;3.40;;
5416;SDS011;2731;50.754;12.990;2023-07-09T10:46:31;3.95;;;3.05;;
5416;SDS011;2731;50.754;12.990;2023-07-09T10:49:01;5.13;;;4.05;;
5416;SDS011;2731;50.754;12.990;2023-07-09T10:54:12;4.78;;;3.60;;
5416;SDS011;2731;50.754;12.990;2023-07-09T10:56:41;5.28;;;3.95;;
5416;SDS011;2731;50.754;12.990;2023-07-09T11:04:55;4.10;;;3.03;;
5416;SDS011;2731;50.754;12.990;2023-07-09T11:07:28;4.40;;;3.08;;
5416;SDS011;2731;50.754;12.990;2023-07-09T11:10:05;4.68;;;3.45;;
5416;SDS011;2731;50.754;12.990;2023-07-09T11:12:39;4.53;;;3.47;;
5416;SDS011;2731;50.754;12.990;2023-07-09T11:17:40;4.63;;;3.63;;
5416;SDS011;2731;50.754;12.990;2023-07-09T11:22:53;5.47;;;3.28;;
5416;SDS011;2731;50.754;12.990;2023-07-09T11:25:27;6.95;;;4.68;;
5416;SDS011;2731;50.754;12.990;2023-07-09T11:28:00;4.80;;;3.55;;
5416;SDS011;2731;50.754;12.990;2023-07-09T11:30:27;7.03;;;3.72;;
5416;SDS011;2731;50.754;12.990;2023-07-09T11:32:57;4.60;;;3.45;;
5416;SDS011;2731;50.754;12.990;2023-07-09T11:35:26;4.85;;;3.65;;
5416;SDS011;2731;50.754;12.990;2023-07-09T11:37:56;5.00;;;3.92;;
5416;SDS011;2731;50.754;12.990;2023-07-09T11:40:33;6.65;;;3.88;;
5416;SDS011;2731;50.754;12.990;2023-07-09T11:43:01;6.97;;;4.55;;
5416;SDS011;2731;50.754;12.990;2023-07-09T11:45:30;7.18;;;4.38;;
5416;SDS011;2731;50.754;12.990;2023-07-09T11:50:30;5.95;;;4.05;;
5416;SDS011;2731;50.754;12.990;2023-07-09T11:52:59;5.97;;;4.20;;
5416;SDS011;2731;50.754;12.990;2023-07-09T12:00:21;6.65;;;3.78;;
5416;SDS011;2731;50.754;12.990;2023-07-09T12:02:48;5.25;;;3.75;;
5416;SDS011;2731;50.754;12.990;2023-07-09T12:05:18;4.40;;;3.80;;
5416;SDS011;2731;50.754;12.990;2023-07-09T12:07:45;4.75;;;3.47;;
5416;SDS011;2731;50.754;12.990;2023-07-09T12:10:18;6.22;;;3.70;;
5416;SDS011;2731;50.754;12.990;2023-07-09T12:12:45;7.78;;;4.20;;
5416;SDS011;2731;50.754;12.990;2023-07-09T12:15:21;5.53;;;4.05;;
5416;SDS011;2731;50.754;12.990;2023-07-09T12:18:00;5.38;;;4.22;;
5416;SDS011;2731;50.754;12.990;2023-07-09T12:20:34;5.45;;;3.97;;
5416;SDS011;2731;50.754;12.990;2023-07-09T12:23:15;7.07;;;3.20;;
5416;SDS011;2731;50.754;12.990;2023-07-09T12:25:47;4.50;;;3.63;;
5416;SDS011;2731;50.754;12.990;2023-07-09T12:28:15;5.53;;;3.58;;
5416;SDS011;2731;50.754;12.990;2023-07-09T12:30:45;5.10;;;4.13;;
5416;SDS011;2731;50.754;12.990;2023-07-09T12:33:12;6.97;;;4.50;;
5416;SDS011;2731;50.754;12.990;2023-07-09T12:35:39;5.72;;;4.68;;
5416;SDS011;2731;50.754;12.990;2023-07-09T12:38:11;10.15;;;4.07;;
5416;SDS011;2731;50.754;12.990;2023-07-09T12:40:41;5.20;;;3.72;;
5416;SDS011;2731;50.754;12.990;2023-07-09T12:43:08;5.97;;;3.85;;
5416;SDS011;2731;50.754;12.990;2023-07-09T12:45:35;7.82;;;4.10;;
5416;SDS011;2731;50.754;12.990;2023-07-09T12:48:01;5.40;;;3.53;;
5416;SDS011;2731;50.754;12.990;2023-07-09T12:50:31;7.63;;;3.78;;
5416;SDS011;2731;50.754;12.990;2023-07-09T12:53:00;6.30;;;4.28;;
5416;SDS011;2731;50.754;12.990;2023-07-09T12:55:28;6.20;;;3.72;;
5416;SDS011;2731;50.754;12.990;2023-07-09T12:57:57;4.82;;;3.70;;
5416;SDS011;2731;50.754;12.990;2023-07-09T13:00:29;5.90;;;3.28;;
5416;SDS011;2731;50.754;12.990;2023-07-09T13:02:57;4.65;;;3.50;;
5416;SDS011;2731;50.754;12.990;2023-07-09T13:05:24;4.80;;;3.22;;
5416;SDS011;2731;50.754;12.990;2023-07-09T13:07:51;4.75;;;3.80;;
5416;SDS011;2731;50.754;12.990;2023-07-09T13:10:19;5.78;;;3.47;;
5416;SDS011;2731;50.754;12.990;2023-07-09T13:12:48;5.68;;;3.55;;
5416;SDS011;2731;50.754;12.990;2023-07-09T13:18:04;5.15;;;3.20;;
5416;SDS011;2731;50.754;12.990;2023-07-09T13:20:32;8.05;;;4.07;;
5416;SDS011;2731;50.754;12.990;2023-07-09T13:22:58;4.75;;;3.60;;
5416;SDS011;2731;50.754;12.990;2023-07-09T13:25:29;5.55;;;3.95;;
5416;SDS011;2731;50.754;12.990;2023-07-09T13:27:57;4.68;;;3.42;;
5416;SDS011;2731;50.754;12.990;2023-07-09T13:30:24;9.07;;;4.18;;
5416;SDS011;2731;50.754;12.990;2023-07-09T13:32:51;4.25;;;3.38;;
5416;SDS011;2731;50.754;12.990;2023-07-09T13:35:18;7.03;;;3.75;;
5416;SDS011;2731;50.754;12.990;2023-07-09T13:37:47;6.50;;;3.83;;
5416;SDS011;2731;50.754;12.990;2023-07-09T13:40:15;6.38;;;3.78;;
5416;SDS011;2731;50.754;12.990;2023-07-09T13:42:44;5.25;;;3.58;;
5416;SDS011;2731;50.754;12.990;2023-07-09T13:45:22;6.13;;;3.28;;
5416;SDS011;2731;50.754;12.990;2023-07-09T13:47:49;5.03;;;3.45;;
5416;SDS011;2731;50.754;12.990;2023-07-09T13:50:15;6.97;;;3.67;;
5416;SDS011;2731;50.754;12.990;2023-07-09T13:52:41;5.45;;;3.30;;
5416;SDS011;2731;50.754;12.990;2023-07-09T13:55:11;5.07;;;3.58;;
5416;SDS011;2731;50.754;12.990;2023-07-09T13:57:41;5.03;;;3.30;;
5416;SDS011;2731;50.754;12.990;2023-07-09T14:00:09;5.28;;;3.88;;
5416;SDS011;2731;50.754;12.990;2023-07-09T14:02:36;4.63;;;3.08;;
5416;SDS011;2731;50.754;12.990;2023-07-09T14:05:07;4.82;;;3.55;;
5416;SDS011;2731;50.754;12.990;2023-07-09T14:07:37;4.15;;;3.42;;
5416;SDS011;2731;50.754;12.990;2023-07-09T14:10:13;6.68;;;3.78;;
5416;SDS011;2731;50.754;12.990;2023-07-09T14:12:45;7.97;;;3.75;;
5416;SDS011;2731;50.754;12.990;2023-07-09T14:15:16;6.65;;;3.97;;
5416;SDS011;2731;50.754;12.990;2023-07-09T14:17:45;5.57;;;3.60;;
5416;SDS011;2731;50.754;12.990;2023-07-09T14:20:15;4.50;;;3.75;;
5416;SDS011;2731;50.754;12.990;2023-07-09T14:22:43;5.50;;;3.65;;
5416;SDS011;2731;50.754;12.990;2023-07-09T14:25:31;5.63;;;3.63;;
5416;SDS011;2731;50.754;12.990;2023-07-09T14:27:58;7.88;;;3.90;;
5416;SDS011;2731;50.754;12.990;2023-07-09T14:30:27;8.80;;;3.67;;
5416;SDS011;2731;50.754;12.990;2023-07-09T14:32:54;6.65;;;4.10;;
5416;SDS011;2731;50.754;12.990;2023-07-09T14:35:22;8.02;;;4.25;;
5416;SDS011;2731;50.754;12.990;2023-07-09T14:37:50;5.20;;;3.88;;
5416;SDS011;2731;50.754;12.990;2023-07-09T14:40:17;4.57;;;3.40;;
5416;SDS011;2731;50.754;12.990;2023-07-09T14:42:47;8.18;;;3.78;;
5416;SDS011;2731;50.754;12.990;2023-07-09T14:45:20;4.90;;;3.70;;
5416;SDS011;2731;50.754;12.990;2023-07-09T14:47:50;6.88;;;3.40;;
5416;SDS011;2731;50.754;12.990;2023-07-09T14:50:18;5.93;;;4.10;;
5416;SDS011;2731;50.754;12.990;2023-07-09T14:52:46;4.65;;;3.85;;
5416;SDS011;2731;50.754;12.990;2023-07-09T14:55:19;5.95;;;4.00;;
5416;SDS011;2731;50.754;12.990;2023-07-09T14:57:49;5.32;;;3.75;;
5416;SDS011;2731;50.754;12.990;2023-07-09T15:00:18;4.40;;;3.53;;
5416;SDS011;2731;50.754;12.990;2023-07-09T15:02:48;5.45;;;3.80;;
5416;SDS011;2731;50.754;12.990;2023-07-09T15:05:20;7.10;;;3.72;;
5416;SDS011;2731;50.754;12.990;2023-07-09T15:07:47;6.77;;;4.17;;
5416;SDS011;2731;50.754;12.990;2023-07-09T15:10:17;5.18;;;3.97;;
5416;SDS011;2731;50.754;12.990;2023-07-09T15:12:45;6.25;;;3.55;;
5416;SDS011;2731;50.754;12.990;2023-07-09T15:17:54;3.92;;;3.33;;
5416;SDS011;2731;50.754;12.990;2023-07-09T15:20:23;7.85;;;4.03;;
5416;SDS011;2731;50.754;12.990;2023-07-09T15:22:51;5.45;;;3.63;;
5416;SDS011;2731;50.754;12.990;2023-07-09T15:25:22;5.68;;;3.95;;
5416;SDS011;2731;50.754;12.990;2023-07-09T15:27:51;6.40;;;3.78;;
5416;SDS011;2731;50.754;12.990;2023-07-09T15:30:20;6.20;;;3.83;;
5416;SDS011;2731;50.754;12.990;2023-07-09T15:32:49;5.22;;;3.92;;
5416;SDS011;2731;50.754;12.990;2023-07-09T15:35:18;5.65;;;3.58;;
5416;SDS011;2731;50.754;12.990;2023-07-09T15:37:56;7.07;;;3.50;;
5416;SDS011;2731;50.754;12.990;2023-07-09T15:40:27;8.50;;;4.50;;
5416;SDS011;2731;50.754;12.990;2023-07-09T15:42:57;5.70;;;3.78;;
5416;SDS011;2731;50.754;12.990;2023-07-09T15:45:27;5.25;;;4.40;;
5416;SDS011;2731;50.754;12.990;2023-07-09T15:47:58;5.78;;;4.00;;
5416;SDS011;2731;50.754;12.990;2023-07-09T15:50:26;6.85;;;3.80;;
5416;SDS011;2731;50.754;12.990;2023-07-09T15:52:54;5.32;;;3.50;;
5416;SDS011;2731;50.754;12.990;2023-07-09T15:55:24;5.68;;;3.78;;
5416;SDS011;2731;50.754;12.990;2023-07-09T15:57:53;4.90;;;3.95;;
5416;SDS011;2731;50.754;12.990;2023-07-09T16:00:25;5.60;;;3.65;;
5416;SDS011;2731;50.754;12.990;2023-07-09T16:02:55;5.55;;;3.70;;
5416;SDS011;2731;50.754;12.990;2023-07-09T16:05:28;5.95;;;3.90;;
5416;SDS011;2731;50.754;12.990;2023-07-09T16:07:56;5.60;;;3.90;;
5416;SDS011;2731;50.754;12.990;2023-07-09T16:10:27;5.80;;;3.97;;
5416;SDS011;2731;50.754;12.990;2023-07-09T16:12:55;5.55;;;3.45;;
5416;SDS011;2731;50.754;12.990;2023-07-09T16:15:22;5.43;;;3.35;;
5416;SDS011;2731;50.754;12.990;2023-07-09T16:17:50;3.90;;;3.10;;
5416;SDS011;2731;50.754;12.990;2023-07-09T16:20:23;6.40;;;3.53;;
5416;SDS011;2731;50.754;12.990;2023-07-09T16:22:52;6.75;;;4.15;;
5416;SDS011;2731;50.754;12.990;2023-07-09T16:25:21;5.57;;;3.53;;
5416;SDS011;2731;50.754;12.990;2023-07-09T16:27:49;5.47;;;3.72;;
5416;SDS011;2731;50.754;12.990;2023-07-09T16:30:18;4.20;;;3.15;;
5416;SDS011;2731;50.754;12.990;2023-07-09T16:32:50;5.15;;;3.47;;
5416;SDS011;2731;50.754;12.990;2023-07-09T16:35:20;9.13;;;4.43;;
5416;SDS011;2731;50.754;12.990;2023-07-09T16:37:49;4.32;;;3.38;;
5416;SDS011;2731;50.754;12.990;2023-07-09T16:40:19;6.35;;;3.42;;
5416;SDS011;2731;50.754;12.990;2023-07-09T16:42:46;7.05;;;4.22;;